VTSH

Songkhla Airport

Thailand
TAF VTSH 201700Z 2018/2118 09005KT 9999 FEW020
Issued Valid From Valid To
Apr-20 @ 17:00 UTC
(2 hours ago)
Apr-20 @ 18:00 UTC
(37 minutes ago)
Apr-21 @ 18:00 UTC
(in 23 hours)
Apr-20 @ 18:00 to Apr-21 @ 18:00
TAF VTSH 201700Z 2018/2118 09005KT 9999 FEW020
Wind Visibility Clouds
90° at 5 knots 10,000+ meters
  • Few at 2,000' AGL
TAF VTSH 201700Z 2018/2118 09005KT 9999 FEW020
Issued Apr-20 @ 17:00 UTC
(2 hours ago)
Valid From Apr-20 @ 18:00 UTC
(37 minutes ago)
Valid To Apr-21 @ 18:00 UTC
(in 23 hours)
Apr-20 @ 18:00 - Apr-21 @ 18:00
Wind Visibility
90° at 5 knots 10,000+ meters
Clouds
  • Few at 2,000' AGL